createdAt,value
2022-08-25T00:01:23.036Z,15.57
2022-08-25T00:03:55.649Z,14.95
2022-08-25T00:06:24.333Z,14.27
2022-08-25T00:08:51.759Z,18.05
2022-08-25T00:11:22.741Z,15.63
2022-08-25T00:13:56.721Z,19.65
2022-08-25T00:16:26.224Z,16.27
2022-08-25T00:18:58.133Z,16.70
2022-08-25T00:21:26.805Z,12.13
2022-08-25T00:23:54.504Z,12.63
2022-08-25T00:26:22.450Z,13.48
2022-08-25T00:28:50.012Z,12.35
2022-08-25T00:31:21.760Z,12.57
2022-08-25T00:33:50.313Z,18.05
2022-08-25T00:36:19.605Z,13.68
2022-08-25T00:38:48.586Z,22.67
2022-08-25T00:41:20.850Z,15.02
2022-08-25T00:43:53.137Z,17.27
2022-08-25T00:46:23.239Z,16.77
2022-08-25T00:48:54.167Z,25.23
2022-08-25T00:51:29.380Z,14.15
2022-08-25T00:53:57.053Z,14.57
2022-08-25T00:56:25.761Z,15.00
2022-08-25T00:58:53.715Z,14.20
2022-08-25T01:01:21.417Z,18.15
2022-08-25T01:03:48.924Z,13.88
2022-08-25T01:06:16.324Z,12.32
2022-08-25T01:08:45.056Z,17.40
2022-08-25T01:11:13.130Z,14.95
2022-08-25T01:13:44.716Z,13.75
2022-08-25T01:16:12.953Z,18.85
2022-08-25T01:18:46.370Z,18.75
2022-08-25T01:21:15.451Z,14.98
2022-08-25T01:23:42.873Z,15.35
2022-08-25T01:26:13.077Z,16.90
2022-08-25T01:29:02.442Z,15.77
2022-08-25T01:31:30.454Z,16.35
2022-08-25T01:33:58.343Z,13.40
2022-08-25T01:36:28.896Z,13.40
2022-08-25T01:38:56.585Z,13.88
2022-08-25T01:41:32.315Z,14.45
2022-08-25T01:43:59.857Z,16.90
2022-08-25T01:46:27.776Z,15.15
2022-08-25T01:48:55.245Z,13.10
2022-08-25T01:51:26.765Z,15.50
2022-08-25T01:53:54.164Z,17.60
2022-08-25T01:56:21.559Z,15.45
2022-08-25T01:58:50.774Z,16.88
2022-08-25T02:01:20.128Z,15.43
2022-08-25T02:03:49.306Z,21.80
2022-08-25T02:06:19.318Z,18.70
2022-08-25T02:08:51.804Z,16.05
2022-08-25T02:11:19.169Z,15.90
2022-08-25T02:13:46.568Z,18.25
2022-08-25T02:16:18.153Z,19.83
2022-08-25T02:18:46.340Z,19.05
2022-08-25T02:21:14.107Z,18.85
2022-08-25T02:23:41.784Z,18.25
2022-08-25T02:26:10.760Z,23.80
2022-08-25T02:28:38.201Z,20.55
2022-08-25T02:31:06.375Z,14.85
2022-08-25T02:33:33.850Z,22.20
2022-08-25T02:36:02.317Z,17.00
2022-08-25T02:38:30.554Z,17.70
2022-08-25T02:40:59.746Z,15.25
2022-08-25T02:43:29.074Z,20.85
2022-08-25T02:45:56.644Z,16.85
2022-08-25T02:48:24.428Z,16.75
2022-08-25T02:50:53.051Z,15.95
2022-08-25T02:53:21.428Z,16.08
2022-08-25T02:55:48.882Z,17.45
2022-08-25T02:58:16.391Z,16.58
2022-08-25T03:00:45.914Z,19.70
2022-08-25T03:03:13.727Z,17.08
2022-08-25T03:05:41.563Z,21.00
2022-08-25T03:08:10.969Z,21.95
2022-08-25T03:10:38.361Z,18.45
2022-08-25T03:13:05.828Z,20.13
2022-08-25T03:15:33.917Z,21.55
2022-08-25T03:18:03.037Z,18.67
2022-08-25T03:20:31.097Z,24.85
2022-08-25T03:22:58.603Z,19.77
2022-08-25T03:25:43.839Z,22.90
2022-08-25T03:28:11.230Z,18.42
2022-08-25T03:30:38.606Z,20.23
2022-08-25T03:33:07.510Z,18.17
2022-08-25T03:35:35.239Z,22.38
2022-08-25T03:38:02.921Z,22.95
2022-08-25T03:40:30.455Z,27.45
2022-08-25T03:42:57.908Z,19.95
2022-08-25T03:45:26.185Z,24.38
2022-08-25T03:47:54.393Z,19.38
2022-08-25T03:50:23.818Z,25.38
2022-08-25T03:52:53.741Z,23.95
2022-08-25T03:55:22.764Z,25.17
2022-08-25T03:57:50.159Z,26.23
2022-08-25T04:00:17.987Z,20.25
2022-08-25T04:02:45.648Z,21.02
2022-08-25T04:05:13.328Z,21.10
2022-08-25T04:07:44.568Z,19.60
2022-08-25T04:10:12.837Z,19.30
2022-08-25T04:12:40.527Z,23.73
2022-08-25T04:15:09.183Z,22.23
2022-08-25T04:17:39.643Z,21.10
2022-08-25T04:20:08.114Z,19.98
2022-08-25T04:22:36.720Z,21.20
2022-08-25T04:25:06.900Z,18.75
2022-08-25T04:27:34.435Z,23.00
2022-08-25T04:30:01.825Z,21.58
2022-08-25T04:32:29.375Z,21.23
2022-08-25T04:34:56.761Z,19.23
2022-08-25T04:37:24.148Z,27.48
2022-08-25T04:39:51.577Z,22.75
2022-08-25T04:42:20.359Z,23.98
2022-08-25T04:44:47.740Z,27.70
2022-08-25T04:47:15.105Z,28.33
2022-08-25T04:49:42.598Z,24.23
2022-08-25T04:52:19.155Z,20.73
2022-08-25T04:54:46.565Z,19.55
2022-08-25T04:57:14.219Z,24.15
2022-08-25T04:59:42.900Z,23.85
2022-08-25T05:02:10.269Z,30.67
2022-08-25T05:04:38.151Z,27.50
2022-08-25T05:07:06.149Z,32.10
2022-08-25T05:09:33.942Z,27.30
2022-08-25T05:12:02.364Z,20.80
2022-08-25T05:14:30.350Z,24.90
2022-08-25T05:16:59.173Z,21.60
2022-08-25T05:19:27.472Z,26.17
2022-08-25T05:21:54.923Z,22.17
2022-08-25T05:24:25.996Z,22.27
2022-08-25T05:26:53.517Z,29.42
2022-08-25T05:29:20.916Z,25.05
2022-08-25T05:31:50.631Z,29.98
2022-08-25T05:34:19.916Z,27.80
2022-08-25T05:36:47.303Z,30.33
2022-08-25T05:39:14.721Z,33.08
2022-08-25T05:41:42.104Z,37.40
2022-08-25T05:44:09.669Z,35.25
2022-08-25T05:46:37.091Z,42.38
2022-08-25T05:49:04.468Z,42.80
2022-08-25T05:51:33.454Z,42.75
2022-08-25T05:54:00.839Z,49.05
2022-08-25T05:56:28.248Z,52.25
2022-08-25T05:58:55.638Z,46.53
2022-08-25T06:01:43.583Z,47.03
2022-08-25T06:04:13.081Z,53.10
2022-08-25T06:06:41.788Z,47.45
2022-08-25T06:09:09.946Z,54.63
2022-08-25T06:11:38.751Z,52.97
2022-08-25T06:14:06.462Z,48.65
2022-08-25T06:16:33.976Z,56.22
2022-08-25T06:19:01.586Z,58.15
2022-08-25T06:21:29.078Z,59.85
2022-08-25T06:23:57.876Z,55.13
2022-08-25T06:26:25.763Z,56.40
2022-08-25T06:28:54.019Z,53.35
2022-08-25T06:31:22.316Z,57.40
2022-08-25T06:33:50.128Z,56.90
2022-08-25T06:36:17.533Z,61.10
2022-08-25T06:38:45.794Z,50.38
2022-08-25T06:41:14.628Z,55.63
2022-08-25T06:43:48.899Z,49.05
2022-08-25T06:46:19.849Z,56.83
2022-08-25T06:48:47.411Z,48.05
2022-08-25T06:51:16.622Z,46.25
2022-08-25T06:53:44.517Z,51.67
2022-08-25T06:56:12.113Z,54.30
2022-08-25T06:58:40.870Z,62.25
2022-08-25T07:01:13.485Z,55.42
2022-08-25T07:03:43.694Z,51.60
2022-08-25T07:06:11.336Z,59.65
2022-08-25T07:08:39.512Z,51.95
2022-08-25T07:11:07.619Z,52.63
2022-08-25T07:13:45.574Z,46.63
2022-08-25T07:16:15.259Z,48.05
2022-08-25T07:18:43.042Z,48.08
2022-08-25T07:21:12.248Z,43.78
2022-08-25T07:23:40.451Z,40.72
2022-08-25T07:26:33.620Z,45.45
2022-08-25T07:29:00.041Z,36.13
2022-08-25T07:31:29.506Z,38.45
2022-08-25T07:34:15.151Z,37.95
2022-08-25T07:36:44.024Z,42.30
2022-08-25T07:39:12.168Z,38.90
2022-08-25T07:41:41.390Z,35.75
2022-08-25T07:44:11.845Z,46.42
2022-08-25T07:46:39.316Z,41.72
2022-08-25T07:49:12.674Z,32.75
2022-08-25T07:52:03.583Z,37.05
2022-08-25T07:54:34.412Z,34.47
2022-08-25T07:57:02.283Z,37.17
2022-08-25T07:59:31.006Z,35.90
2022-08-25T08:02:08.305Z,34.53
2022-08-25T08:04:36.788Z,31.02
2022-08-25T08:07:04.571Z,31.85
2022-08-25T08:09:39.528Z,32.65
2022-08-25T08:12:08.070Z,30.90
2022-08-25T08:14:39.551Z,31.33
2022-08-25T08:17:12.857Z,32.38
2022-08-25T08:19:44.453Z,31.38
2022-08-25T08:22:15.403Z,39.22
2022-08-25T08:24:54.952Z,36.40
2022-08-25T08:27:24.046Z,34.97
2022-08-25T08:29:53.627Z,37.45
2022-08-25T08:32:22.279Z,25.45
2022-08-25T08:34:58.054Z,28.27
2022-08-25T08:37:25.659Z,24.67
2022-08-25T08:39:53.085Z,25.45
2022-08-25T08:42:28.455Z,22.38
2022-08-25T08:45:06.064Z,23.00
2022-08-25T08:47:49.256Z,17.88
2022-08-25T08:50:28.018Z,19.85
2022-08-25T08:53:05.033Z,22.20
2022-08-25T08:55:35.286Z,23.67
2022-08-25T08:58:06.677Z,21.60
2022-08-25T09:00:43.221Z,14.93
2022-08-25T09:03:28.926Z,18.75
2022-08-25T09:06:01.672Z,16.88
2022-08-25T09:08:30.656Z,18.67
2022-08-25T09:11:03.611Z,14.40
2022-08-25T09:13:40.340Z,15.25
2022-08-25T09:16:33.888Z,18.65
2022-08-25T09:19:12.739Z,18.20
2022-08-25T09:21:53.205Z,15.75
2022-08-25T09:24:29.543Z,16.73
2022-08-25T09:27:06.877Z,11.82
2022-08-25T09:29:55.756Z,14.35
2022-08-25T09:32:31.604Z,11.60
2022-08-25T09:35:00.223Z,13.30
2022-08-25T09:37:27.794Z,11.55
2022-08-25T09:39:55.833Z,12.25
2022-08-25T09:42:49.891Z,13.98
2022-08-25T09:45:17.950Z,13.48
2022-08-25T09:47:46.423Z,14.43
2022-08-25T09:50:18.966Z,13.63
2022-08-25T09:52:46.633Z,15.32
2022-08-25T09:55:29.180Z,11.40
2022-08-25T09:58:01.386Z,13.95
2022-08-25T10:00:36.906Z,14.23
2022-08-25T10:03:11.772Z,11.43
2022-08-25T10:05:59.553Z,15.10
2022-08-25T10:08:32.503Z,15.70
2022-08-25T10:13:38.628Z,12.00
2022-08-25T10:16:17.699Z,10.70
2022-08-25T10:19:03.003Z,13.93
2022-08-25T10:21:30.409Z,15.35
2022-08-25T10:23:57.787Z,20.63
2022-08-25T10:26:35.123Z,17.90
2022-08-25T10:29:13.099Z,17.05
2022-08-25T10:31:48.249Z,18.90
2022-08-25T10:34:23.601Z,14.48
2022-08-25T10:36:58.282Z,15.52
2022-08-25T10:39:37.013Z,20.25
2022-08-25T10:42:29.357Z,16.38
2022-08-25T10:45:29.650Z,15.10
2022-08-25T10:48:30.949Z,17.40
2022-08-25T10:51:03.276Z,11.45
2022-08-25T10:53:41.059Z,14.73
2022-08-25T10:56:12.205Z,23.08
2022-08-25T10:59:04.613Z,14.77
2022-08-25T11:01:44.000Z,12.63
2022-08-25T11:04:15.584Z,11.85
2022-08-25T11:06:47.561Z,19.73
2022-08-25T11:09:21.324Z,15.35
2022-08-25T11:11:54.508Z,12.52
2022-08-25T11:14:24.770Z,13.00
2022-08-25T11:16:58.726Z,14.38
2022-08-25T11:19:30.947Z,22.90
2022-08-25T11:22:04.629Z,17.60
2022-08-25T11:24:38.033Z,15.17
2022-08-25T11:27:06.772Z,14.55
2022-08-25T11:29:37.395Z,17.75
2022-08-25T11:32:08.687Z,20.98
2022-08-25T11:34:43.589Z,15.43
2022-08-25T11:37:20.038Z,14.90
2022-08-25T11:40:05.613Z,17.67
2022-08-25T11:42:46.470Z,16.75
2022-08-25T11:45:24.481Z,20.90
2022-08-25T11:48:04.876Z,18.10
2022-08-25T11:50:35.772Z,20.90
2022-08-25T11:53:23.702Z,13.98
2022-08-25T11:55:55.911Z,16.70
2022-08-25T11:58:36.985Z,14.38
2022-08-25T12:01:06.565Z,15.85
2022-08-25T12:03:55.462Z,21.25
2022-08-25T12:06:28.122Z,19.15
2022-08-25T12:09:19.119Z,17.77
2022-08-25T12:11:50.198Z,18.42
2022-08-25T12:14:38.716Z,20.13
2022-08-25T12:17:12.117Z,20.08
2022-08-25T12:19:57.906Z,19.42
2022-08-25T12:22:51.576Z,22.13
2022-08-25T12:25:36.355Z,14.75
2022-08-25T12:28:09.746Z,16.88
2022-08-25T12:30:43.741Z,17.88
2022-08-25T12:33:17.048Z,27.00
2022-08-25T12:35:56.468Z,27.83
2022-08-25T12:38:30.098Z,17.42
2022-08-25T12:41:03.384Z,19.02
2022-08-25T12:43:37.672Z,20.83
2022-08-25T12:46:34.400Z,16.73
2022-08-25T12:49:02.904Z,19.42
2022-08-25T12:51:49.806Z,16.50
2022-08-25T12:54:22.531Z,20.75
2022-08-25T12:56:54.219Z,26.52
2022-08-25T12:59:25.004Z,22.80
2022-08-25T13:02:07.624Z,19.33
2022-08-25T13:05:00.061Z,17.87
2022-08-25T13:07:50.480Z,21.70
2022-08-25T13:10:30.935Z,16.70
2022-08-25T13:13:04.196Z,16.10
2022-08-25T13:15:39.685Z,21.48
2022-08-25T13:18:23.181Z,18.70
2022-08-25T13:20:52.516Z,22.23
2022-08-25T13:23:25.287Z,20.75
2022-08-25T13:25:54.652Z,17.65
2022-08-25T13:28:29.270Z,19.88
2022-08-25T13:30:59.359Z,20.27
2022-08-25T13:33:28.039Z,21.75
2022-08-25T13:36:12.654Z,23.02
2022-08-25T13:38:42.138Z,23.35
2022-08-25T13:41:18.604Z,17.92
2022-08-25T13:43:45.985Z,22.67
2022-08-25T13:46:15.376Z,16.58
2022-08-25T13:48:49.502Z,19.30
2022-08-25T13:51:24.047Z,22.98
2022-08-25T13:54:02.619Z,18.70
2022-08-25T13:56:39.914Z,19.52
2022-08-25T13:59:21.815Z,17.98
2022-08-25T14:01:50.336Z,16.50
2022-08-25T14:04:29.234Z,19.27
2022-08-25T14:07:10.412Z,25.45
2022-08-25T14:09:46.619Z,20.65
2022-08-25T14:12:31.058Z,20.20
2022-08-25T14:15:00.522Z,23.42
2022-08-25T14:17:39.046Z,17.92
2022-08-25T14:20:15.918Z,19.48
2022-08-25T14:22:43.324Z,28.83
2022-08-25T14:25:13.307Z,25.52
2022-08-25T14:28:05.716Z,15.93
2022-08-25T14:30:31.085Z,14.30
2022-08-25T14:32:59.445Z,21.92
2022-08-25T14:35:27.286Z,22.50
2022-08-25T14:37:54.825Z,28.00
2022-08-25T14:40:23.694Z,23.30
2022-08-25T14:42:51.200Z,23.88
2022-08-25T14:45:19.808Z,21.52
2022-08-25T14:47:49.838Z,25.90
2022-08-25T14:50:20.848Z,19.88
2022-08-25T14:52:51.929Z,22.33
2022-08-25T14:55:31.253Z,26.33
2022-08-25T14:58:00.737Z,21.40
2022-08-25T15:00:28.564Z,28.10
2022-08-25T15:02:56.350Z,23.10
2022-08-25T15:05:27.049Z,23.42
2022-08-25T15:08:13.836Z,23.27
2022-08-25T15:10:41.390Z,34.83
2022-08-25T15:13:10.426Z,19.00
2022-08-25T15:15:52.627Z,19.27
2022-08-25T15:18:20.935Z,21.83
2022-08-25T15:20:50.189Z,25.38
2022-08-25T15:23:18.327Z,15.32
2022-08-25T15:25:46.433Z,23.45
2022-08-25T15:28:17.241Z,24.40
2022-08-25T15:30:45.902Z,46.97
2022-08-25T15:33:13.468Z,26.77
2022-08-25T15:35:41.519Z,24.17
2022-08-25T15:38:13.915Z,27.50
2022-08-25T15:40:41.663Z,31.20
2022-08-25T15:43:10.419Z,29.88
2022-08-25T15:45:39.168Z,27.45
2022-08-25T15:48:09.463Z,66.38
2022-08-25T15:50:37.328Z,42.15
2022-08-25T15:53:06.325Z,31.67
2022-08-25T15:55:39.626Z,27.88
2022-08-25T15:58:07.040Z,31.25
2022-08-25T16:00:36.537Z,25.95
2022-08-25T16:03:08.052Z,23.65
2022-08-25T16:05:37.265Z,29.88
2022-08-25T16:08:05.183Z,29.63
2022-08-25T16:10:35.224Z,31.73
2022-08-25T16:13:04.695Z,29.40
2022-08-25T16:15:33.114Z,33.10
2022-08-25T16:18:01.311Z,30.38
2022-08-25T16:20:30.962Z,32.70
2022-08-25T16:23:00.471Z,35.72
2022-08-25T16:25:28.465Z,34.75
2022-08-25T16:27:56.561Z,35.83
2022-08-25T16:30:25.160Z,29.92
2022-08-25T16:32:52.562Z,36.97
2022-08-25T16:35:19.984Z,37.65
2022-08-25T16:37:50.615Z,36.35
2022-08-25T16:40:22.666Z,31.40
2022-08-25T16:42:50.598Z,29.25
2022-08-25T16:45:18.676Z,24.88
2022-08-25T16:47:46.181Z,33.20
2022-08-25T16:50:14.129Z,17.73
2022-08-25T16:52:59.639Z,46.45
2022-08-25T16:55:38.649Z,25.52
2022-08-25T16:58:07.109Z,19.67
2022-08-25T17:00:37.614Z,23.75
2022-08-25T17:03:06.109Z,35.03
2022-08-25T17:05:34.644Z,26.52
2022-08-25T17:08:18.643Z,33.47
2022-08-25T17:10:47.976Z,32.13
2022-08-25T17:13:15.656Z,26.30
2022-08-25T17:15:44.668Z,28.17
2022-08-25T17:18:12.768Z,33.78
2022-08-25T17:20:41.094Z,33.25
2022-08-25T17:23:12.871Z,32.17
2022-08-25T17:25:43.000Z,26.77
2022-08-25T17:28:12.963Z,29.98
2022-08-25T17:30:41.531Z,33.97
2022-08-25T17:33:08.905Z,25.50
2022-08-25T17:35:39.815Z,31.15
2022-08-25T17:38:07.448Z,43.85
2022-08-25T17:40:36.152Z,31.85
2022-08-25T17:43:03.748Z,30.70
2022-08-25T17:45:32.926Z,32.22
2022-08-25T17:48:00.398Z,30.95
2022-08-25T17:50:27.960Z,20.45
2022-08-25T17:52:56.175Z,30.45
2022-08-25T17:55:24.233Z,25.30
2022-08-25T17:57:52.004Z,34.80
2022-08-25T18:00:21.168Z,39.58
2022-08-25T18:02:50.155Z,28.45
2022-08-25T18:05:18.172Z,38.67
2022-08-25T18:07:45.787Z,35.45
2022-08-25T18:10:13.708Z,34.38
2022-08-25T18:12:41.170Z,29.55
2022-08-25T18:15:11.810Z,29.05
2022-08-25T18:17:42.376Z,25.90
2022-08-25T18:20:15.088Z,30.00
2022-08-25T18:29:56.481Z,21.45
2022-08-25T18:32:25.955Z,32.22
2022-08-25T18:34:53.626Z,28.70
2022-08-25T18:37:38.724Z,33.95
2022-08-25T18:40:25.389Z,26.10
2022-08-25T18:42:54.964Z,54.30
2022-08-25T18:45:27.709Z,29.48
2022-08-25T18:47:57.436Z,34.28
2022-08-25T18:50:27.102Z,34.22
2022-08-25T18:52:55.104Z,19.17
2022-08-25T18:55:23.108Z,30.60
2022-08-25T18:57:51.381Z,24.30
2022-08-25T19:00:21.829Z,23.13
2022-08-25T19:02:52.774Z,23.90
2022-08-25T19:05:24.345Z,25.90
2022-08-25T19:07:52.704Z,29.90
2022-08-25T19:10:20.698Z,24.90
2022-08-25T19:12:51.963Z,26.40
2022-08-25T19:15:19.353Z,28.10
2022-08-25T19:17:53.967Z,24.02
2022-08-25T19:20:23.121Z,24.95
2022-08-25T19:22:50.876Z,29.58
2022-08-25T19:25:18.839Z,21.10
2022-08-25T19:27:47.124Z,25.35
2022-08-25T19:30:17.600Z,22.60
2022-08-25T19:32:46.705Z,25.95
2022-08-25T19:35:20.034Z,24.35
2022-08-25T19:37:47.971Z,26.58
2022-08-25T19:40:18.219Z,31.40
2022-08-25T19:42:45.717Z,24.40
2022-08-25T19:45:14.470Z,20.65
2022-08-25T19:47:42.276Z,23.00
2022-08-25T19:50:16.677Z,27.23
2022-08-25T19:52:46.196Z,32.60
2022-08-25T19:55:17.367Z,24.80
2022-08-25T19:57:44.990Z,32.20
2022-08-25T20:00:15.415Z,34.95
2022-08-25T20:02:43.253Z,29.27
2022-08-25T20:05:12.192Z,29.85
2022-08-25T20:07:40.730Z,29.92
2022-08-25T20:10:14.161Z,28.73
2022-08-25T20:12:42.750Z,27.60
2022-08-25T20:15:10.607Z,25.70
2022-08-25T20:17:38.035Z,27.42
2022-08-25T20:20:11.523Z,25.55
2022-08-25T20:22:39.050Z,21.20
2022-08-25T20:25:13.478Z,25.40
2022-08-25T20:27:43.004Z,30.42
2022-08-25T20:30:13.207Z,25.55
2022-08-25T20:32:40.858Z,22.63
2022-08-25T20:35:13.052Z,28.92
2022-08-25T20:37:41.193Z,31.15
2022-08-25T20:40:12.281Z,21.92
2022-08-25T20:42:40.634Z,28.95
2022-08-25T20:45:12.256Z,21.13
2022-08-25T20:47:40.172Z,21.75
2022-08-25T20:50:09.614Z,28.02
2022-08-25T20:52:37.350Z,21.92
2022-08-25T20:55:12.243Z,32.75
2022-08-25T20:57:40.326Z,23.05
2022-08-25T21:00:09.815Z,31.20
2022-08-25T21:02:37.776Z,27.58
2022-08-25T21:05:06.143Z,23.77
2022-08-25T21:07:35.764Z,22.50
2022-08-25T21:10:03.504Z,21.73
2022-08-25T21:12:33.230Z,26.13
2022-08-25T21:15:01.071Z,35.70
2022-08-25T21:17:28.692Z,25.20
2022-08-25T21:19:56.154Z,24.65
2022-08-25T21:22:23.539Z,27.20
2022-08-25T21:24:51.403Z,26.77
2022-08-25T21:27:18.782Z,27.45
2022-08-25T21:29:54.648Z,29.02
2022-08-25T21:32:22.748Z,25.00
2022-08-25T21:34:52.367Z,29.83
2022-08-25T21:37:19.741Z,33.40
2022-08-25T21:39:47.178Z,27.15
2022-08-25T21:42:14.576Z,27.23
2022-08-25T21:44:42.705Z,26.75
2022-08-25T21:47:11.423Z,27.40
2022-08-25T21:49:38.874Z,24.00
2022-08-25T21:52:06.485Z,26.33
2022-08-25T21:54:34.244Z,25.67
2022-08-25T21:57:04.518Z,25.80
2022-08-25T21:59:33.740Z,24.27
2022-08-25T22:02:02.858Z,25.75
2022-08-25T22:04:32.307Z,25.00
2022-08-25T22:07:00.184Z,31.58
2022-08-25T22:09:28.349Z,22.27
2022-08-25T22:11:56.500Z,28.98
2022-08-25T22:14:25.988Z,25.10
2022-08-25T22:16:53.840Z,31.60
2022-08-25T22:19:21.751Z,33.60
2022-08-25T22:21:52.642Z,23.95
2022-08-25T22:24:20.304Z,29.35
2022-08-25T22:26:49.294Z,25.02
2022-08-25T22:29:25.463Z,25.75
2022-08-25T22:31:53.831Z,29.83
2022-08-25T22:34:30.749Z,29.13
2022-08-25T22:37:01.254Z,29.50
2022-08-25T22:39:29.078Z,28.08
2022-08-25T22:41:56.519Z,31.05
2022-08-25T22:44:24.997Z,33.15
2022-08-25T22:46:52.539Z,27.98
2022-08-25T22:49:19.976Z,24.55
2022-08-25T22:51:48.996Z,26.55
2022-08-25T22:54:17.810Z,26.25
2022-08-25T22:56:45.715Z,27.35
2022-08-25T22:59:13.954Z,31.50
2022-08-25T23:01:44.192Z,29.25
2022-08-25T23:04:12.067Z,29.98
2022-08-25T23:06:40.097Z,25.65
2022-08-25T23:09:09.260Z,28.08
2022-08-25T23:11:38.877Z,25.58
2022-08-25T23:14:09.912Z,29.30
2022-08-25T23:16:37.853Z,22.80
2022-08-25T23:19:05.401Z,24.27
2022-08-25T23:21:50.308Z,29.92
2022-08-25T23:24:29.954Z,28.20
2022-08-25T23:27:01.156Z,28.05
2022-08-25T23:29:30.086Z,25.55
2022-08-25T23:31:58.378Z,27.17
2022-08-25T23:34:26.712Z,27.17
2022-08-25T23:36:56.155Z,26.83
2022-08-25T23:39:23.597Z,28.92
2022-08-25T23:41:52.042Z,21.85
2022-08-25T23:44:22.410Z,24.88
2022-08-25T23:46:53.095Z,26.25
2022-08-25T23:49:22.281Z,30.35
2022-08-25T23:51:52.781Z,31.10
2022-08-25T23:54:21.175Z,28.35
2022-08-25T23:56:52.484Z,25.80
2022-08-25T23:59:24.519Z,25.63
